Time;durP1;ratioP1;P1;durP2;ratioP2;P2;SDS_P1;SDS_P2;PMS_P1;PMS_P2;Temp;Humidity;BMP_temperature;BMP_pressure;BME280_temperature;BME280_humidity;BME280_pressure;Samples;Min_cycle;Max_cycle;Signal;HPM_P1;HPM_P2
2022/08/15 00:00:41;;;;;;;2.85;2.47;;;;;;;23.30;46.68;97100.94;5075381;28;20267;-70
2022/08/15 00:03:19;;;;;;;2.53;2.30;;;;;;;23.30;46.58;97098.25;5074645;28;20687;-70
2022/08/15 00:05:47;;;;;;;3.65;2.35;;;;;;;23.28;46.33;97100.47;5074946;28;20193;-70
2022/08/15 00:08:13;;;;;;;2.53;2.33;;;;;;;23.30;45.91;97093.63;5074800;28;20212;-70
2022/08/15 00:10:41;;;;;;;2.80;2.45;;;;;;;23.38;46.05;97087.34;5074696;28;20224;-70
2022/08/15 00:13:18;;;;;;;2.95;2.30;;;;;;;23.40;45.85;97081.63;5074672;28;20302;-70
2022/08/15 00:15:47;;;;;;;3.35;2.60;;;;;;;23.50;45.42;97073.94;5074347;28;20553;-70
2022/08/15 00:18:14;;;;;;;2.67;2.40;;;;;;;23.55;45.03;97091.94;5074571;28;20232;-69
2022/08/15 00:20:41;;;;;;;4.18;2.83;;;;;;;23.53;45.07;97086.84;5074168;28;20634;-70
2022/08/15 00:23:14;;;;;;;2.45;2.25;;;;;;;23.45;45.71;97084.16;5074540;28;20243;-70
2022/08/15 00:25:45;;;;;;;3.03;2.60;;;;;;;23.39;45.82;97083.56;5074399;28;20204;-69
2022/08/15 00:28:12;;;;;;;2.15;2.05;;;;;;;23.37;45.81;97084.97;5074745;28;20188;-70
2022/08/15 00:30:39;;;;;;;3.50;2.40;;;;;;;23.32;46.46;97079.72;5074329;28;20315;-70
2022/08/15 00:33:07;;;;;;;4.60;2.83;;;;;;;23.32;47.00;97071.56;5074310;28;20207;-70
2022/08/15 00:35:37;;;;;;;2.78;2.58;;;;;;;23.25;47.76;97071.28;5074004;28;20577;-70
2022/08/15 00:38:16;;;;;;;3.25;2.95;;;;;;;23.14;49.10;97078.13;5074172;28;20230;-70
2022/08/15 00:43:34;;;;;;;3.03;2.83;;;;;;;23.02;48.90;97097.78;5074438;28;20623;-70
2022/08/15 00:46:03;;;;;;;2.92;2.63;;;;;;;22.97;50.20;97108.00;5074085;28;20231;-70
2022/08/15 00:48:44;;;;;;;2.83;2.63;;;;;;;22.86;52.13;97101.31;5073906;28;20232;-70
2022/08/15 00:51:21;;;;;;;2.80;2.55;;;;;;;22.77;53.13;97120.28;5073878;28;20199;-70
2022/08/15 00:53:55;;;;;;;3.63;2.78;;;;;;;22.72;54.28;97133.19;5073926;28;20279;-70
2022/08/15 00:56:25;;;;;;;3.03;2.80;;;;;;;22.49;56.74;97123.63;5073897;28;20189;-69
2022/08/15 00:58:53;;;;;;;3.30;3.00;;;;;;;22.44;56.62;97119.13;5073532;28;20315;-70
2022/08/15 01:01:20;;;;;;;2.90;2.70;;;;;;;22.33;56.74;97117.03;5073426;28;20295;-70
2022/08/15 01:03:49;;;;;;;3.40;3.08;;;;;;;22.34;55.59;97115.94;5073480;28;20204;-70
2022/08/15 01:06:17;;;;;;;4.57;3.20;;;;;;;22.39;55.20;97102.22;5073090;28;20680;-69
2022/08/15 01:08:46;;;;;;;3.20;2.90;;;;;;;22.38;55.49;97098.72;5072779;28;20747;-69
2022/08/15 01:11:20;;;;;;;3.10;2.80;;;;;;;22.39;56.04;97099.53;5073433;28;20208;-70
2022/08/15 01:13:47;;;;;;;2.92;2.72;;;;;;;22.37;55.16;97094.41;5072881;28;20702;-70
2022/08/15 01:16:15;;;;;;;5.13;2.90;;;;;;;22.33;56.53;97082.63;5073324;28;20291;-69
2022/08/15 01:18:43;;;;;;;3.08;2.88;;;;;;;22.20;58.12;97090.91;5073166;28;20330;-70
2022/08/15 01:21:39;;;;;;;4.27;3.00;;;;;;;22.07;58.23;97099.94;5073785;28;20215;-70
2022/08/15 01:24:24;;;;;;;3.47;2.85;;;;;;;22.14;56.55;97098.38;5072880;28;20211;-70
2022/08/15 01:26:52;;;;;;;7.33;2.93;;;;;;;22.08;57.61;97104.25;5073319;28;20643;-69
2022/08/15 01:29:19;;;;;;;4.13;2.87;;;;;;;22.03;57.90;97115.22;5073396;28;20232;-70
2022/08/15 01:31:47;;;;;;;4.10;2.93;;;;;;;22.02;59.01;97119.81;5073552;28;20204;-70
2022/08/15 01:34:13;;;;;;;3.25;2.95;;;;;;;22.01;59.51;97114.72;5073817;28;20204;-70
2022/08/15 01:36:40;;;;;;;3.10;2.80;;;;;;;21.95;59.04;97105.16;5073215;28;20205;-70
2022/08/15 01:39:24;;;;;;;3.77;2.70;;;;;;;21.99;57.76;97106.13;5072997;28;20255;-70
2022/08/15 01:42:03;;;;;;;3.43;2.83;;;;;;;22.11;55.76;97107.09;5074024;28;20189;-70
2022/08/15 01:44:59;;;;;;;3.23;2.83;;;;;;;22.20;54.84;97104.44;5073514;28;20192;-70
2022/08/15 01:47:37;;;;;;;3.47;3.17;;;;;;;22.24;54.58;97117.00;5073502;28;20254;-70
2022/08/15 01:50:09;;;;;;;4.17;3.00;;;;;;;22.23;54.55;97122.75;5073370;28;20319;-69
2022/08/15 01:52:42;;;;;;;3.03;2.60;;;;;;;22.25;54.41;97117.81;5073143;28;20622;-70
2022/08/15 01:55:11;;;;;;;3.67;2.80;;;;;;;22.18;55.27;97118.28;5073397;28;20283;-70
2022/08/15 01:57:37;;;;;;;2.90;2.70;;;;;;;22.20;55.41;97107.16;5073254;28;20228;-70
2022/08/15 02:00:07;;;;;;;3.30;3.03;;;;;;;22.23;55.12;97115.44;5073229;28;20224;-70
2022/08/15 02:02:34;;;;;;;4.87;2.77;;;;;;;22.20;55.62;97109.84;5073181;28;20215;-70
2022/08/15 02:05:00;;;;;;;3.73;2.83;;;;;;;22.21;55.83;97122.28;5073204;28;20204;-70
2022/08/15 02:07:28;;;;;;;3.30;3.00;;;;;;;22.21;55.90;97114.16;5073207;28;20208;-69
2022/08/15 02:09:56;;;;;;;5.53;3.17;;;;;;;22.13;56.54;97110.31;5073130;28;20270;-70
2022/08/15 02:12:28;;;;;;;4.10;3.00;;;;;;;22.15;56.78;97105.38;5073590;28;20200;-70
2022/08/15 02:14:54;;;;;;;3.77;3.20;;;;;;;22.15;57.19;97112.72;5073019;28;20212;-69
2022/08/15 02:17:21;;;;;;;4.83;3.53;;;;;;;22.15;57.45;97110.78;5073105;28;20238;-70
2022/08/15 02:19:51;;;;;;;4.53;3.30;;;;;;;22.10;58.12;97110.13;5073345;28;20717;-70
2022/08/15 02:22:21;;;;;;;3.50;3.07;;;;;;;22.07;58.48;97111.56;5076938;28;20193;-69
2022/08/15 02:24:47;;;;;;;3.17;2.80;;;;;;;22.02;58.77;97114.41;5076839;28;20209;-70
2022/08/15 02:27:14;;;;;;;3.37;3.00;;;;;;;22.02;59.09;97113.63;5076751;28;20301;-70
2022/08/15 02:29:41;;;;;;;4.83;3.30;;;;;;;21.99;59.15;97109.66;5076340;28;20266;-70
2022/08/15 02:32:15;;;;;;;3.40;3.00;;;;;;;22.01;59.35;97106.59;5076269;28;20291;-70
2022/08/15 02:34:43;;;;;;;3.93;3.10;;;;;;;21.99;59.30;97103.41;5076490;28;20711;-70
2022/08/15 02:37:11;;;;;;;5.87;3.57;;;;;;;22.07;59.19;97102.66;5076573;28;20262;-69
2022/08/15 02:39:40;;;;;;;4.33;2.87;;;;;;;21.99;59.82;97109.66;5076091;28;20239;-70
2022/08/15 02:42:07;;;;;;;3.50;2.93;;;;;;;22.00;59.77;97122.06;5076085;28;20682;-70
2022/08/15 02:44:33;;;;;;;4.43;2.97;;;;;;;22.01;59.55;97120.13;5076390;28;20292;-70
2022/08/15 02:47:00;;;;;;;6.07;3.47;;;;;;;22.01;59.66;97112.81;5076366;28;20205;-69
2022/08/15 02:49:27;;;;;;;3.03;2.60;;;;;;;22.06;59.83;97120.78;5076010;28;20772;-70
2022/08/15 02:51:54;;;;;;;4.13;2.87;;;;;;;22.05;59.73;97115.69;5076304;28;20211;-70
2022/08/15 02:54:26;;;;;;;6.43;3.20;;;;;;;22.01;60.25;97120.94;5076263;28;20204;-70
2022/08/15 02:56:54;;;;;;;3.90;3.00;;;;;;;21.99;60.14;97122.38;5076783;28;20192;-70
2022/08/15 02:59:21;;;;;;;5.87;3.20;;;;;;;21.92;60.29;97130.13;5075913;28;20229;-70
2022/08/15 03:01:47;;;;;;;3.27;2.90;;;;;;;21.91;60.80;97132.06;5076097;28;20201;-70
2022/08/15 03:04:19;;;;;;;3.90;3.00;;;;;;;21.93;60.25;97129.03;5076032;28;20287;-70
2022/08/15 03:06:45;;;;;;;4.77;3.17;;;;;;;21.90;60.63;97132.38;5075760;28;20193;-70
2022/08/15 03:09:14;;;;;;;3.70;2.93;;;;;;;21.91;60.45;97128.53;5075901;28;20220;-70
2022/08/15 03:11:43;;;;;;;5.17;3.13;;;;;;;21.92;60.57;97139.06;5075611;28;20743;-70
2022/08/15 03:14:14;;;;;;;3.83;3.13;;;;;;;21.97;60.73;97135.44;5075476;28;20216;-70
2022/08/15 03:16:43;;;;;;;3.20;2.90;;;;;;;21.93;61.04;97139.88;5076544;28;20200;-70
2022/08/15 03:19:18;;;;;;;4.17;2.60;;;;;;;21.87;61.19;97135.69;5075195;28;20323;-69
2022/08/15 03:21:45;;;;;;;3.00;2.80;;;;;;;21.87;61.52;97132.97;5075738;28;20553;-70
2022/08/15 03:24:12;;;;;;;3.20;2.50;;;;;;;21.86;61.81;97131.38;5075366;28;20742;-70
2022/08/15 03:26:39;;;;;;;4.03;3.10;;;;;;;21.89;61.61;97134.25;5076077;28;20209;-69
2022/08/15 03:29:06;;;;;;;4.57;2.73;;;;;;;21.82;61.88;97127.72;5074982;28;20311;-70
2022/08/15 03:31:34;;;;;;;3.07;2.80;;;;;;;21.90;61.51;97127.75;5074647;28;20604;-70
2022/08/15 03:34:01;;;;;;;4.30;2.97;;;;;;;21.82;61.74;97136.63;5075308;28;20261;-70
2022/08/15 03:36:27;;;;;;;2.80;2.50;;;;;;;21.82;61.71;97136.63;5075398;28;20230;-70
2022/08/15 03:38:54;;;;;;;4.07;2.60;;;;;;;21.87;61.70;97136.50;5075090;28;20315;-70
2022/08/15 03:41:20;;;;;;;3.70;2.77;;;;;;;21.81;61.75;97139.66;5075225;28;20232;-69
2022/08/15 03:43:47;;;;;;;4.67;3.20;;;;;;;21.80;62.17;97138.06;5074930;28;20300;-70
2022/08/15 03:46:20;;;;;;;3.63;2.37;;;;;;;21.73;62.63;97143.13;5074752;28;20291;-70
2022/08/15 03:48:50;;;;;;;5.93;2.70;;;;;;;21.70;62.77;97135.63;5075039;28;20185;-70
2022/08/15 03:51:19;;;;;;;4.47;2.70;;;;;;;21.76;62.63;97137.91;5074755;28;20195;-70
2022/08/15 03:53:50;;;;;;;4.23;2.67;;;;;;;21.65;63.40;97136.53;5074595;28;20671;-70
2022/08/15 03:56:21;;;;;;;3.47;2.57;;;;;;;21.68;63.80;97140.50;5075043;28;20247;-70
2022/08/15 03:58:48;;;;;;;4.23;2.70;;;;;;;21.66;63.82;97137.34;5074832;28;20235;-70
2022/08/15 04:01:22;;;;;;;3.67;2.47;;;;;;;21.68;64.19;97133.22;5074360;28;20206;-70
2022/08/15 04:03:50;;;;;;;3.10;2.40;;;;;;;21.65;64.52;97138.41;5074478;28;20189;-70
2022/08/15 04:06:20;;;;;;;2.70;2.50;;;;;;;21.64;64.39;97139.53;5074665;28;20293;-69
2022/08/15 04:08:48;;;;;;;4.33;3.23;;;;;;;21.51;65.75;97138.53;5074607;28;20207;-70
2022/08/15 04:11:16;;;;;;;4.10;2.87;;;;;;;21.51;65.79;97140.44;5074630;28;20211;-70
2022/08/15 04:13:45;;;;;;;4.40;2.77;;;;;;;21.49;65.71;97135.34;5074322;28;20563;-70
2022/08/15 04:16:13;;;;;;;4.57;2.83;;;;;;;21.39;66.76;97132.09;5074569;28;20204;-70
2022/08/15 04:18:41;;;;;;;2.80;2.50;;;;;;;21.41;66.76;97143.41;5073867;28;20778;-70
2022/08/15 04:21:11;;;;;;;3.90;2.73;;;;;;;21.32;67.17;97129.03;5074279;28;20212;-69
2022/08/15 04:23:40;;;;;;;4.13;3.03;;;;;;;21.34;67.34;97138.44;5073828;28;20570;-70
2022/08/15 04:26:06;;;;;;;2.87;2.50;;;;;;;21.33;67.46;97144.94;5074182;28;20287;-70
2022/08/15 04:28:33;;;;;;;2.83;2.50;;;;;;;21.34;67.56;97133.03;5074220;28;20291;-70
2022/08/15 04:31:03;;;;;;;4.77;2.80;;;;;;;21.39;67.43;97141.00;5073825;28;20278;-70
2022/08/15 04:33:32;;;;;;;5.07;2.90;;;;;;;21.35;67.96;97137.31;5074552;28;20212;-70
2022/08/15 04:36:09;;;;;;;5.73;2.77;;;;;;;21.43;67.58;97141.97;5074725;28;20211;-70
2022/08/15 04:38:40;;;;;;;2.80;2.47;;;;;;;21.38;67.70;97146.75;5074071;28;20242;-70
2022/08/15 04:41:08;;;;;;;7.07;2.70;;;;;;;21.33;67.66;97157.66;5073738;28;20196;-70
2022/08/15 04:43:37;;;;;;;3.50;2.23;;;;;;;21.32;67.84;97154.19;5072991;28;20208;-70
2022/08/15 04:46:04;;;;;;;3.23;2.50;;;;;;;21.38;67.70;97157.56;5073810;28;20258;-70
2022/08/15 04:48:31;;;;;;;3.57;2.80;;;;;;;21.36;67.10;97163.28;5073502;28;20213;-70
2022/08/15 04:50:59;;;;;;;5.17;2.60;;;;;;;21.23;67.24;97160.63;5073656;28;20626;-69
2022/08/15 04:53:33;;;;;;;3.53;2.07;;;;;;;21.08;67.01;97161.81;5073597;28;20291;-69
2022/08/15 04:56:01;;;;;;;2.33;2.13;;;;;;;21.08;66.91;97159.13;5073579;28;20192;-69
2022/08/15 04:58:29;;;;;;;3.30;2.33;;;;;;;20.98;67.07;97150.44;5073311;28;20287;-70
2022/08/15 05:00:59;;;;;;;3.40;1.97;;;;;;;20.96;67.40;97155.34;5073749;28;20244;-70
2022/08/15 05:03:27;;;;;;;4.37;2.27;;;;;;;20.83;67.73;97162.38;5073577;28;20295;-69
2022/08/15 05:05:56;;;;;;;3.20;2.20;;;;;;;20.84;68.08;97158.56;5073358;28;20236;-69
2022/08/15 05:08:26;;;;;;;4.00;2.33;;;;;;;20.90;67.75;97157.38;5073521;28;20232;-69
2022/08/15 05:10:57;;;;;;;3.53;2.00;;;;;;;20.88;67.78;97154.13;5072732;28;20216;-70
2022/08/15 05:13:27;;;;;;;4.10;2.67;;;;;;;20.91;67.82;97158.97;5071337;28;20650;-70
2022/08/15 05:15:55;;;;;;;3.13;2.10;;;;;;;20.96;67.45;97171.56;5073124;28;20216;-69
2022/08/15 05:18:24;;;;;;;2.73;1.90;;;;;;;20.86;67.71;97153.66;5073203;28;20261;-69
2022/08/15 05:20:51;;;;;;;2.80;2.13;;;;;;;20.89;67.43;97150.31;5072923;28;20232;-69
2022/08/15 05:23:19;;;;;;;2.37;2.17;;;;;;;20.89;67.75;97149.53;5073024;28;20671;-69
2022/08/15 05:25:50;;;;;;;2.17;1.70;;;;;;;20.81;67.62;97147.56;5073070;28;20218;-69
2022/08/15 05:28:16;;;;;;;2.40;2.10;;;;;;;20.76;67.65;97151.16;5073139;28;20193;-70
2022/08/15 05:30:43;;;;;;;2.27;2.07;;;;;;;20.90;67.23;97148.44;5072707;28;20725;-69
2022/08/15 05:33:16;;;;;;;2.60;2.03;;;;;;;20.85;67.31;97137.75;5073122;28;20201;-69
2022/08/15 05:35:44;;;;;;;6.40;2.50;;;;;;;20.77;67.34;97144.69;5073052;28;20566;-70
2022/08/15 05:38:21;;;;;;;5.00;2.03;;;;;;;20.78;67.07;97142.75;5072969;28;20295;-69
2022/08/15 05:41:14;;;;;;;2.03;1.93;;;;;;;20.81;66.80;97136.75;5072468;28;20228;-69
2022/08/15 05:44:19;;;;;;;2.97;1.90;;;;;;;20.90;67.08;97137.63;5072811;28;20212;-69
2022/08/15 05:47:26;;;;;;;1.90;1.80;;;;;;;20.92;66.78;97151.66;5065125;28;20734;-69
2022/08/15 05:49:54;;;;;;;2.97;2.00;;;;;;;21.01;67.10;97147.09;5072942;28;20224;-69
2022/08/15 05:52:35;;;;;;;2.20;2.00;;;;;;;21.00;67.28;97145.53;5072511;28;20269;-69
2022/08/15 05:55:18;;;;;;;2.43;2.07;;;;;;;20.89;67.91;97139.53;5072546;28;20283;-69
2022/08/15 05:57:53;;;;;;;2.00;1.90;;;;;;;20.76;67.94;97136.88;5058593;28;20204;-69
2022/08/15 06:00:20;;;;;;;2.47;2.13;;;;;;;20.78;68.41;97134.66;5056324;28;20717;-70
2022/08/15 06:03:21;;;;;;;2.40;1.90;;;;;;;20.79;68.43;97128.19;5056567;28;20205;-71
2022/08/15 06:05:52;;;;;;;3.03;2.00;;;;;;;20.76;68.27;97129.56;5050683;28;20204;-70
2022/08/15 06:08:24;;;;;;;3.47;1.80;;;;;;;20.77;68.34;97120.38;5056875;28;20189;-70
2022/08/15 06:11:02;;;;;;;2.10;1.90;;;;;;;20.78;68.00;97111.16;5055713;28;20312;-70
2022/08/15 06:13:38;;;;;;;2.17;1.90;;;;;;;20.83;68.03;97105.63;5056827;28;20208;-70
2022/08/15 06:16:16;;;;;;;2.23;1.70;;;;;;;20.79;68.00;97106.56;5056855;28;20195;-70
2022/08/15 06:18:43;;;;;;;2.23;2.10;;;;;;;20.91;67.45;97115.75;5056687;28;20276;-70
2022/08/15 06:21:43;;;;;;;4.20;2.17;;;;;;;20.90;67.64;97129.53;5056280;28;20316;-69
2022/08/15 06:24:30;;;;;;;2.37;1.83;;;;;;;20.98;67.60;97145.81;5056520;28;20189;-69
2022/08/15 06:27:21;;;;;;;3.60;2.10;;;;;;;20.92;69.01;97163.25;5056374;28;20197;-69
2022/08/15 06:30:13;;;;;;;2.63;1.87;;;;;;;20.71;72.93;97153.22;5063639;22;20332;-70
2022/08/15 06:32:46;;;;;;;3.93;2.20;;;;;;;20.51;74.59;97161.75;5056170;28;20296;-70
2022/08/15 06:35:21;;;;;;;2.57;2.23;;;;;;;20.39;75.82;97159.56;5056229;28;20233;-70
2022/08/15 06:38:21;;;;;;;2.70;2.00;;;;;;;20.20;75.96;97171.59;5054541;28;20637;-70
2022/08/15 06:40:56;;;;;;;2.50;2.00;;;;;;;20.24;76.82;97177.97;5055634;28;20233;-70
2022/08/15 06:43:22;;;;;;;3.73;2.10;;;;;;;20.38;75.81;97167.97;5038404;28;20280;-70
2022/08/15 06:45:51;;;;;;;2.77;2.10;;;;;;;20.38;78.50;97179.56;5056154;28;20216;-70
2022/08/15 06:48:22;;;;;;;2.23;1.90;;;;;;;20.33;78.23;97184.28;5055867;28;20205;-70
2022/08/15 06:50:54;;;;;;;2.80;2.10;;;;;;;20.37;77.47;97179.88;5055711;28;20224;-70
2022/08/15 06:53:32;;;;;;;3.77;2.20;;;;;;;20.50;75.65;97181.75;5055974;28;20205;-70
2022/08/15 06:55:58;;;;;;;2.17;2.00;;;;;;;20.34;73.66;97191.28;5037873;28;20200;-69
2022/08/15 06:58:39;;;;;;;3.97;2.20;;;;;;;20.55;72.46;97182.47;5055673;28;20205;-70
2022/08/15 07:01:29;;;;;;;3.80;1.97;;;;;;;20.73;70.35;97180.69;5055853;28;20209;-69
2022/08/15 07:04:16;;;;;;;5.00;3.50;;;;;;;20.90;69.91;97178.16;5016563;28;20625;-69
2022/08/15 07:06:51;;;;;;;4.47;2.10;;;;;;;21.02;67.78;97173.06;5054253;28;20281;-70
2022/08/15 07:09:36;;;;;;;4.17;2.00;;;;;;;21.34;68.19;97183.63;5038261;28;20231;-69
2022/08/15 07:12:24;;;;;;;2.17;1.97;;;;;;;21.38;68.10;97173.78;5055617;28;20303;-69
2022/08/15 07:15:05;;;;;;;2.57;2.13;;;;;;;21.38;67.01;97184.59;5022492;28;20555;-69
2022/08/15 07:17:40;;;;;;;3.13;1.87;;;;;;;21.24;66.77;97189.25;5055857;28;20379;-69
2022/08/15 07:20:09;;;;;;;2.13;1.97;;;;;;;21.05;66.82;97189.44;5055052;28;20323;-69
2022/08/15 07:22:37;;;;;;;1.97;1.77;;;;;;;20.97;67.10;97182.06;5055412;28;20692;-69
2022/08/15 07:25:10;;;;;;;3.17;2.00;;;;;;;21.13;67.18;97185.19;5055151;28;20868;-69
2022/08/15 07:27:37;;;;;;;3.33;2.10;;;;;;;21.12;66.44;97181.69;5055433;28;20212;-69
2022/08/15 07:30:12;;;;;;;5.00;3.57;;;;;;;21.36;65.87;97181.38;5055017;28;20600;-70
2022/08/15 07:32:41;;;;;;;5.87;4.73;;;;;;;21.49;64.83;97180.50;5055241;28;20189;-69
2022/08/15 07:35:12;;;;;;;2.40;1.93;;;;;;;21.60;64.81;97181.84;5055256;28;20544;-69
2022/08/15 07:37:56;;;;;;;2.53;1.90;;;;;;;21.60;64.23;97192.66;5055327;28;20215;-69
2022/08/15 07:40:34;;;;;;;4.67;2.07;;;;;;;21.80;63.81;97189.47;5055047;28;20237;-69
2022/08/15 07:43:02;;;;;;;2.33;1.80;;;;;;;22.07;62.39;97176.53;5055121;28;20201;-69
2022/08/15 07:45:41;;;;;;;4.80;1.90;;;;;;;22.36;61.09;97178.69;5055074;28;20209;-69
2022/08/15 07:48:10;;;;;;;2.63;1.60;;;;;;;22.50;60.83;97187.50;5054672;28;20215;-69
2022/08/15 07:50:43;;;;;;;2.50;1.80;;;;;;;22.05;61.58;97186.88;5054993;28;20221;-69
2022/08/15 07:53:16;;;;;;;8.60;7.73;;;;;;;22.13;61.86;97178.00;5055167;28;20296;-70
2022/08/15 07:56:04;;;;;;;2.83;2.30;;;;;;;22.02;61.84;97186.72;5055070;28;20303;-70
2022/08/15 07:58:32;;;;;;;2.67;1.80;;;;;;;22.11;62.21;97191.03;5054684;28;20209;-70
2022/08/15 08:01:13;;;;;;;2.87;1.90;;;;;;;22.33;61.55;97195.56;5054396;28;20316;-69
2022/08/15 08:03:46;;;;;;;2.57;2.10;;;;;;;22.52;60.42;97198.84;5055351;28;20193;-69
2022/08/15 08:06:32;;;;;;;2.63;2.30;;;;;;;22.51;59.05;97198.03;5054558;28;20197;-70
2022/08/15 08:09:33;;;;;;;4.97;2.50;;;;;;;22.30;59.83;97198.91;5054638;28;20225;-70
2022/08/15 08:12:25;;;;;;;5.00;4.03;;;;;;;22.34;59.93;97200.66;5039615;28;20205;-70
2022/08/15 08:15:14;;;;;;;2.27;1.60;;;;;;;22.33;60.13;97193.66;5036964;28;20190;-70
2022/08/15 08:17:46;;;;;;;4.60;2.17;;;;;;;22.49;59.81;97202.16;5054834;28;20197;-70
2022/08/15 08:20:27;;;;;;;2.93;1.60;;;;;;;22.77;58.84;97192.66;5054392;28;20590;-69
2022/08/15 08:23:20;;;;;;;3.08;1.60;;;;;;;22.42;58.75;97208.00;5053711;28;20196;-70
2022/08/15 08:26:10;;;;;;;3.87;2.10;;;;;;;22.23;58.92;97203.97;5054546;28;20196;-70
2022/08/15 08:29:14;;;;;;;3.30;1.67;;;;;;;22.14;59.26;97197.72;5013770;28;20209;-70
2022/08/15 08:32:05;;;;;;;2.90;1.80;;;;;;;22.28;59.12;97193.00;5054135;28;20189;-70
2022/08/15 08:34:41;;;;;;;6.63;5.97;;;;;;;22.26;58.54;97200.63;5054204;28;20211;-70
2022/08/15 08:37:41;;;;;;;2.30;1.63;;;;;;;22.34;58.43;97197.94;5036369;28;20284;-69
2022/08/15 08:44:07;;;;;;;2.53;1.60;;;;;;;22.72;56.79;97176.56;5054128;28;20742;-69
2022/08/15 08:46:51;;;;;;;2.17;1.97;;;;;;;23.14;55.37;97186.59;5023307;28;20288;-70
2022/08/15 08:49:20;;;;;;;3.92;3.38;;;;;;;23.55;54.81;97189.59;5036427;28;20229;-70
2022/08/15 08:52:08;;;;;;;2.80;1.95;;;;;;;23.45;54.02;97190.75;5053954;28;20201;-69
2022/08/15 08:55:07;;;;;;;3.83;2.28;;;;;;;23.62;53.84;97195.34;5053371;28;20213;-70
2022/08/15 08:57:43;;;;;;;1.95;1.80;;;;;;;23.76;53.98;97195.94;5042972;28;20205;-70
2022/08/15 09:00:19;;;;;;;2.00;1.90;;;;;;;23.73;54.40;97205.53;5053687;28;20229;-70
2022/08/15 09:03:04;;;;;;;6.55;4.60;;;;;;;24.01;55.04;97197.81;5053704;28;20212;-70
2022/08/15 09:05:44;;;;;;;2.40;2.20;;;;;;;24.18;54.79;97192.31;5054194;28;20622;-70
2022/08/15 09:08:24;;;;;;;16.30;14.73;;;;;;;23.73;55.86;97199.31;5053535;28;20193;-69
2022/08/15 09:10:54;;;;;;;2.50;2.17;;;;;;;23.34;56.65;97196.84;5053555;28;20225;-70
2022/08/15 09:13:33;;;;;;;5.68;4.70;;;;;;;23.07;57.95;97197.91;5053989;28;20209;-70
2022/08/15 09:16:04;;;;;;;3.72;2.30;;;;;;;23.34;56.64;97207.69;5037711;28;20280;-70
2022/08/15 09:18:35;;;;;;;2.92;2.22;;;;;;;23.27;57.54;97199.22;5053324;28;20190;-70
2022/08/15 09:21:02;;;;;;;5.78;5.25;;;;;;;23.45;57.40;97200.81;5053554;28;20209;-70
2022/08/15 09:23:36;;;;;;;4.70;2.50;;;;;;;23.42;57.43;97198.75;5053354;28;20247;-70
2022/08/15 09:26:10;;;;;;;2.30;2.10;;;;;;;23.68;56.41;97211.13;5053109;28;20185;-70
2022/08/15 09:28:41;;;;;;;3.38;2.90;;;;;;;23.84;55.79;97203.28;5053012;28;20193;-70
2022/08/15 09:31:20;;;;;;;3.08;2.35;;;;;;;23.77;54.41;97201.06;5052659;28;20190;-71
2022/08/15 09:34:08;;;;;;;3.38;3.03;;;;;;;24.11;53.78;97200.19;5053182;28;20292;-70
2022/08/15 09:37:06;;;;;;;2.25;2.00;;;;;;;23.33;54.30;97195.25;5052893;28;20676;-70
2022/08/15 09:40:02;;;;;;;3.17;2.00;;;;;;;24.14;54.24;97191.34;5053646;28;20221;-70
2022/08/15 09:42:52;;;;;;;2.33;2.05;;;;;;;24.38;53.74;97192.34;5052827;28;20185;-71
2022/08/15 09:45:21;;;;;;;4.43;2.30;;;;;;;24.12;53.82;97193.63;5036617;28;20702;-71
2022/08/15 09:47:57;;;;;;;2.33;2.13;;;;;;;23.85;54.89;97191.28;5053054;28;20293;-70
2022/08/15 09:50:52;;;;;;;2.92;2.17;;;;;;;24.16;54.11;97189.91;5035902;28;20232;-71
2022/08/15 09:53:55;;;;;;;2.42;2.00;;;;;;;24.73;52.56;97188.34;5052972;28;20531;-70
2022/08/15 09:56:25;;;;;;;2.45;2.08;;;;;;;24.58;52.33;97185.38;5038010;28;20656;-71
2022/08/15 09:59:05;;;;;;;2.17;1.90;;;;;;;24.68;50.87;97172.22;5052584;28;20324;-71
2022/08/15 10:01:44;;;;;;;2.33;1.83;;;;;;;24.32;50.85;97187.44;5052480;28;20209;-70
2022/08/15 10:04:13;;;;;;;2.78;1.90;;;;;;;24.21;50.58;97178.06;5052967;28;20230;-71
2022/08/15 10:07:09;;;;;;;2.28;1.60;;;;;;;24.82;50.18;97167.34;5052566;28;20212;-70
2022/08/15 10:09:41;;;;;;;2.35;1.90;;;;;;;24.71;49.25;97173.50;5024006;28;20312;-71
2022/08/15 10:12:08;;;;;;;2.00;1.80;;;;;;;25.01;49.19;97173.09;5052848;28;20204;-70
2022/08/15 10:14:52;;;;;;;2.53;1.90;;;;;;;25.31;48.92;97166.47;5052915;28;20205;-70
2022/08/15 10:17:27;;;;;;;2.20;2.00;;;;;;;25.17;49.29;97162.41;5053347;28;20193;-71
2022/08/15 10:19:54;;;;;;;2.72;2.00;;;;;;;25.21;49.70;97155.97;5052427;28;20239;-71
2022/08/15 10:22:24;;;;;;;2.90;1.95;;;;;;;25.85;48.38;97159.00;5052989;28;20256;-70
2022/08/15 10:25:28;;;;;;;2.10;1.90;;;;;;;25.87;47.92;97151.31;5053047;28;20197;-71
2022/08/15 10:28:00;;;;;;;3.88;2.05;;;;;;;24.32;51.40;97165.69;5052406;28;20205;-71
2022/08/15 10:30:30;;;;;;;2.53;2.00;;;;;;;24.59;51.13;97165.22;5052397;28;20240;-71
2022/08/15 10:32:59;;;;;;;2.22;2.10;;;;;;;24.94;50.57;97163.88;5052260;28;20211;-71
2022/08/15 10:35:35;;;;;;;3.17;2.88;;;;;;;25.08;50.16;97148.09;5052367;28;20569;-71
2022/08/15 10:38:04;;;;;;;3.50;2.47;;;;;;;25.51;49.05;97156.69;5052266;28;20660;-70
2022/08/15 10:40:37;;;;;;;2.78;2.10;;;;;;;25.50;47.72;97147.69;5052371;28;20319;-70
2022/08/15 10:43:28;;;;;;;1.98;1.80;;;;;;;25.47;47.93;97142.16;5056089;28;20280;-70
2022/08/15 10:46:06;;;;;;;2.70;1.67;;;;;;;25.90;46.17;97145.16;5055872;28;20281;-70
2022/08/15 10:49:02;;;;;;;2.00;1.85;;;;;;;25.33;46.57;97141.66;5055892;28;20233;-70
2022/08/15 10:51:43;;;;;;;1.90;1.70;;;;;;;25.15;46.73;97137.47;5055523;28;20628;-70
2022/08/15 10:54:28;;;;;;;1.80;1.70;;;;;;;25.34;46.99;97138.59;5055831;28;20213;-70
2022/08/15 10:56:56;;;;;;;2.90;1.73;;;;;;;25.80;44.12;97143.69;5055296;28;20644;-70
2022/08/15 10:59:27;;;;;;;5.72;2.30;;;;;;;25.60;44.74;97130.94;5055560;28;20229;-70
2022/08/15 11:02:19;;;;;;;4.97;1.92;;;;;;;25.80;43.64;97134.72;5055837;28;20304;-70
2022/08/15 11:04:46;;;;;;;2.45;2.25;;;;;;;25.08;44.51;97129.03;5056156;28;20204;-70
2022/08/15 11:07:30;;;;;;;1.73;1.63;;;;;;;24.88;44.94;97138.03;5055847;28;20755;-70
2022/08/15 11:10:00;;;;;;;1.90;1.80;;;;;;;25.11;44.99;97123.72;5055433;28;20766;-71
2022/08/15 11:12:30;;;;;;;2.05;1.85;;;;;;;25.07;45.41;97125.56;5055234;28;20295;-70
2022/08/15 11:15:04;;;;;;;4.43;1.85;;;;;;;25.40;45.22;97125.56;5055596;28;20216;-70
2022/08/15 11:17:35;;;;;;;11.68;10.50;;;;;;;25.73;44.39;97118.94;5055230;28;20194;-71
2022/08/15 11:20:16;;;;;;;23.73;21.38;;;;;;;25.99;43.75;97124.09;5055462;28;20225;-71
2022/08/15 11:22:52;;;;;;;8.77;8.00;;;;;;;25.83;43.82;97129.38;5055996;28;20214;-71
2022/08/15 11:25:22;;;;;;;2.42;2.22;;;;;;;25.62;44.28;97125.97;5055073;28;20371;-70
2022/08/15 11:28:04;;;;;;;6.55;5.97;;;;;;;25.79;43.73;97133.91;5056364;28;20278;-71
2022/08/15 11:30:34;;;;;;;4.95;4.55;;;;;;;26.03;43.53;97122.28;5055049;28;20257;-70
2022/08/15 11:33:19;;;;;;;5.25;4.75;;;;;;;26.27;42.49;97117.63;5055284;28;20280;-70
2022/08/15 11:35:46;;;;;;;5.43;4.93;;;;;;;26.40;41.76;97116.47;5055204;28;20205;-70
2022/08/15 11:38:16;;;;;;;3.05;2.75;;;;;;;26.45;41.86;97118.16;5054571;28;20570;-70
2022/08/15 11:40:43;;;;;;;2.63;1.73;;;;;;;26.16;41.99;97121.97;5054798;28;20241;-71
2022/08/15 11:43:16;;;;;;;4.00;3.53;;;;;;;26.05;42.14;97114.59;5055147;28;20548;-70
2022/08/15 11:45:48;;;;;;;3.67;3.38;;;;;;;25.86;42.64;97114.28;5037320;28;20209;-70
2022/08/15 11:48:22;;;;;;;4.60;2.03;;;;;;;26.11;42.20;97118.66;5055181;28;20204;-70
2022/08/15 11:51:14;;;;;;;3.70;2.35;;;;;;;26.40;42.34;97107.50;5054777;28;20225;-70
2022/08/15 11:54:02;;;;;;;2.60;1.83;;;;;;;25.96;42.24;97097.56;5023652;28;20209;-70
2022/08/15 11:56:47;;;;;;;1.58;1.48;;;;;;;26.01;42.95;97102.78;5055118;28;20209;-70
2022/08/15 11:59:19;;;;;;;4.53;2.03;;;;;;;26.41;42.20;97112.59;5054791;28;20313;-70
2022/08/15 12:02:02;;;;;;;3.58;1.80;;;;;;;26.23;42.83;97108.53;5054666;28;20300;-70
2022/08/15 12:04:33;;;;;;;2.05;1.90;;;;;;;25.96;43.04;97105.72;5054624;28;20224;-70
2022/08/15 12:07:09;;;;;;;2.70;1.88;;;;;;;26.30;41.87;97099.78;5054701;28;20294;-70
2022/08/15 12:09:36;;;;;;;2.00;1.90;;;;;;;26.62;41.48;97096.13;5054572;28;20224;-70
2022/08/15 12:12:03;;;;;;;3.55;1.60;;;;;;;26.90;41.12;97096.94;5054199;28;20212;-70
2022/08/15 12:14:30;;;;;;;4.82;1.90;;;;;;;26.87;40.99;97092.19;5053763;28;20213;-70